Time;durP1;ratioP1;P1;durP2;ratioP2;P2;SDS_P1;SDS_P2;PMS_P1;PMS_P2;Temp;Humidity;BMP_temperature;BMP_pressure;BME280_temperature;BME280_humidity;BME280_pressure;Samples;Min_cycle;Max_cycle;Signal;HPM_P1;HPM_P2
2022/05/26 00:01:12;;;;;;;0.70;0.70;;;6.90;99.90;;;;;;5060396;28;20288;-88
2022/05/26 00:03:41;;;;;;;0.80;0.80;;;6.90;99.90;;;;;;5060476;28;20221;-86
2022/05/26 00:06:09;;;;;;;0.60;0.60;;;7.00;99.90;;;;;;5059919;28;20197;-87
2022/05/26 00:08:39;;;;;;;0.70;0.70;;;7.10;99.90;;;;;;5060218;28;20256;-87
2022/05/26 00:11:10;;;;;;;0.55;0.55;;;7.10;99.90;;;;;;5077136;28;20202;-89
2022/05/26 00:13:37;;;;;;;0.70;0.70;;;7.20;99.90;;;;;;5076743;28;20204;-91
2022/05/26 00:16:04;;;;;;;0.70;0.70;;;7.30;99.90;;;;;;5078890;28;20197;-90
2022/05/26 00:18:29;;;;;;;0.70;0.70;;;7.30;99.90;;;;;;5060768;28;20225;-91
2022/05/26 00:20:55;;;;;;;0.60;0.60;;;7.40;99.90;;;;;;5061063;28;20224;-89
2022/05/26 00:23:21;;;;;;;0.77;0.77;;;7.40;99.90;;;;;;5060955;28;20316;-89
2022/05/26 00:25:47;;;;;;;0.70;0.70;;;7.40;99.90;;;;;;5059068;28;20189;-91
2022/05/26 00:28:13;;;;;;;0.70;0.70;;;7.50;99.90;;;;;;5078909;28;20236;-91
2022/05/26 00:30:39;;;;;;;0.63;0.63;;;7.50;99.90;;;;;;5078287;28;20201;-91
2022/05/26 00:33:07;;;;;;;0.68;0.68;;;7.50;99.90;;;;;;5073600;28;20278;-90
2022/05/26 00:35:34;;;;;;;0.70;0.70;;;7.50;99.90;;;;;;5040848;28;20541;-91
2022/05/26 00:38:03;;;;;;;0.70;0.70;;;7.60;99.90;;;;;;5040294;28;20688;-90
2022/05/26 00:40:29;;;;;;;0.60;0.60;;;7.60;99.90;;;;;;5043003;28;20204;-91
2022/05/26 00:42:55;;;;;;;0.60;0.60;;;7.60;99.90;;;;;;5061070;28;20197;-91
2022/05/26 00:45:22;;;;;;;0.70;0.70;;;7.70;99.90;;;;;;5060244;28;20300;-91
2022/05/26 00:47:48;;;;;;;0.60;0.60;;;7.70;99.90;;;;;;5060077;28;20277;-89
2022/05/26 00:50:21;;;;;;;0.73;0.73;;;7.70;99.90;;;;;;5059376;28;20296;-90
2022/05/26 00:52:59;;;;;;;0.70;0.70;;;7.80;99.90;;;;;;5061124;28;20266;-90
2022/05/26 00:55:38;;;;;;;0.70;0.70;;;7.80;99.90;;;;;;5071270;28;20663;-86
2022/05/26 00:58:09;;;;;;;0.93;0.93;;;7.90;99.90;;;;;;5069744;28;20212;-92
2022/05/26 01:00:38;;;;;;;0.70;0.70;;;8.00;99.90;;;;;;5069012;28;20196;-87
2022/05/26 01:03:27;;;;;;;6.15;1.10;;;8.00;99.90;;;;;;5068191;28;20283;-87
2022/05/26 01:06:11;;;;;;;0.70;0.70;;;8.10;99.90;;;;;;5068961;28;20225;-87
2022/05/26 01:08:45;;;;;;;0.70;0.70;;;8.10;99.90;;;;;;5065723;28;20211;-85
2022/05/26 01:11:11;;;;;;;0.70;0.70;;;8.10;99.90;;;;;;5065716;28;20197;-86
2022/05/26 01:13:43;;;;;;;0.60;0.60;;;8.10;99.90;;;;;;5048751;28;20204;-86
2022/05/26 01:16:32;;;;;;;0.75;0.75;;;8.10;99.90;;;;;;5067328;28;20283;-84
2022/05/26 01:19:32;;;;;;;0.60;0.60;;;8.20;99.90;;;;;;5065304;28;20225;-85
2022/05/26 01:22:45;;;;;;;0.70;0.70;;;8.20;99.90;;;;;;5064427;28;20190;-83
2022/05/26 01:25:32;;;;;;;0.70;0.70;;;8.20;99.90;;;;;;5050584;28;20201;-84
2022/05/26 01:28:04;;;;;;;0.60;0.60;;;8.20;99.90;;;;;;5065248;28;20668;-87
2022/05/26 01:30:50;;;;;;;0.60;0.60;;;8.20;99.90;;;;;;5064951;28;20760;-85
2022/05/26 01:33:16;;;;;;;0.80;0.80;;;8.20;99.90;;;;;;5059425;28;20267;-83
2022/05/26 01:36:16;;;;;;;0.60;0.60;;;8.30;99.90;;;;;;5059056;28;20202;-81
2022/05/26 01:39:06;;;;;;;0.90;0.90;;;8.30;99.90;;;;;;5077337;28;20217;-82
2022/05/26 01:41:41;;;;;;;0.65;0.65;;;8.40;99.90;;;;;;5080039;28;20198;-84
2022/05/26 01:44:35;;;;;;;0.65;0.65;;;8.40;99.90;;;;;;5063995;28;20212;-86
2022/05/26 01:47:08;;;;;;;0.68;0.68;;;8.40;99.90;;;;;;5080736;28;20668;-84
2022/05/26 01:49:49;;;;;;;0.60;0.60;;;8.40;99.90;;;;;;5080328;28;20205;-84
2022/05/26 01:52:18;;;;;;;0.60;0.60;;;8.40;99.90;;;;;;5064827;28;20204;-85
2022/05/26 01:54:58;;;;;;;0.65;0.65;;;8.40;99.90;;;;;;5080856;28;20217;-85
2022/05/26 01:57:40;;;;;;;0.60;0.60;;;8.40;99.90;;;;;;5059600;28;20248;-86
2022/05/26 02:00:10;;;;;;;0.60;0.60;;;8.50;99.90;;;;;;5044124;28;20202;-85
2022/05/26 02:02:47;;;;;;;0.93;0.90;;;8.50;99.90;;;;;;5062123;28;20189;-86
2022/05/26 02:05:31;;;;;;;0.60;0.60;;;8.50;99.90;;;;;;5060721;28;20198;-85
2022/05/26 02:08:14;;;;;;;0.68;0.68;;;8.50;99.90;;;;;;5062288;28;20221;-85
2022/05/26 02:10:50;;;;;;;0.60;0.60;;;8.50;99.90;;;;;;5060653;28;20571;-84
2022/05/26 02:13:26;;;;;;;0.60;0.60;;;8.50;99.90;;;;;;5060163;28;20197;-84
2022/05/26 02:16:22;;;;;;;0.60;0.60;;;8.50;99.90;;;;;;5060953;28;20209;-85
2022/05/26 02:18:54;;;;;;;0.60;0.60;;;8.50;99.90;;;;;;5038218;28;20237;-84
2022/05/26 02:21:33;;;;;;;0.65;0.65;;;8.50;99.90;;;;;;5061574;28;20296;-87
2022/05/26 02:24:09;;;;;;;0.80;0.80;;;8.50;99.90;;;;;;5062104;28;20197;-86
2022/05/26 02:26:37;;;;;;;0.50;0.50;;;8.50;99.90;;;;;;5061189;28;20204;-83
2022/05/26 02:31:49;;;;;;;0.60;0.60;;;8.50;99.90;;;;;;5063305;28;20212;-84
2022/05/26 02:34:18;;;;;;;0.60;0.60;;;8.50;99.90;;;;;;5062891;28;20232;-84
2022/05/26 02:36:45;;;;;;;0.60;0.60;;;8.60;99.90;;;;;;5061385;28;20609;-84
2022/05/26 02:39:11;;;;;;;0.60;0.60;;;8.60;99.90;;;;;;5062061;28;20614;-84
2022/05/26 02:41:45;;;;;;;0.60;0.60;;;8.60;99.90;;;;;;5060796;28;20193;-84
2022/05/26 02:44:11;;;;;;;0.60;0.60;;;8.60;99.90;;;;;;5061049;28;20220;-83
2022/05/26 02:46:46;;;;;;;0.70;0.70;;;8.60;99.90;;;;;;5076456;28;20193;-86
2022/05/26 02:49:14;;;;;;;0.60;0.60;;;8.60;99.90;;;;;;5060316;28;20612;-85
2022/05/26 02:51:45;;;;;;;0.60;0.60;;;8.60;99.90;;;;;;5059452;28;20208;-86
2022/05/26 02:54:36;;;;;;;0.70;0.70;;;8.60;99.90;;;;;;5043663;28;20538;-85
2022/05/26 02:57:14;;;;;;;0.60;0.60;;;8.70;99.90;;;;;;5059722;28;20201;-85
2022/05/26 02:59:53;;;;;;;0.50;0.50;;;8.70;99.90;;;;;;5060487;28;20228;-85
2022/05/26 03:02:42;;;;;;;0.60;0.60;;;8.80;99.90;;;;;;5058410;28;20278;-86
2022/05/26 03:05:15;;;;;;;16.50;2.15;;;8.80;99.90;;;;;;5040161;28;20201;-85
2022/05/26 03:07:44;;;;;;;0.60;0.60;;;8.80;99.90;;;;;;5039310;28;20280;-87
2022/05/26 03:10:11;;;;;;;0.70;0.70;;;8.80;99.90;;;;;;5040594;28;20726;-85
2022/05/26 03:12:37;;;;;;;0.60;0.60;;;8.80;99.90;;;;;;5039530;28;20201;-85
2022/05/26 03:15:06;;;;;;;0.60;0.60;;;8.90;99.90;;;;;;5040192;28;20198;-86
2022/05/26 03:17:32;;;;;;;0.70;0.70;;;8.90;99.90;;;;;;5043236;28;20712;-87
2022/05/26 03:19:58;;;;;;;0.60;0.60;;;8.90;99.90;;;;;;5043975;28;20201;-86
2022/05/26 03:22:24;;;;;;;2.05;1.83;;;8.90;99.90;;;;;;5043342;28;20217;-85
2022/05/26 03:24:51;;;;;;;0.60;0.60;;;8.90;99.90;;;;;;5044462;28;20194;-86
2022/05/26 03:27:17;;;;;;;0.60;0.60;;;8.90;99.90;;;;;;5049035;28;20698;-87
2022/05/26 03:29:43;;;;;;;0.60;0.60;;;9.00;99.90;;;;;;5056908;28;20728;-86
2022/05/26 03:32:09;;;;;;;0.60;0.60;;;9.00;99.90;;;;;;5070055;28;20197;-86
2022/05/26 03:42:49;;;;;;;0.60;0.60;;;9.10;99.90;;;;;;5081817;28;20241;-86
2022/05/26 03:45:22;;;;;;;0.60;0.60;;;9.20;99.90;;;;;;5066954;28;20200;-86
2022/05/26 03:47:49;;;;;;;0.60;0.60;;;9.20;99.90;;;;;;5065305;28;20698;-86
2022/05/26 03:50:15;;;;;;;0.60;0.60;;;9.20;99.90;;;;;;5083190;28;20204;-85
2022/05/26 03:52:40;;;;;;;0.60;0.60;;;9.30;99.90;;;;;;5080256;28;20557;-85
2022/05/26 03:55:07;;;;;;;0.65;0.65;;;9.30;99.90;;;;;;5080681;28;20568;-84
2022/05/26 03:57:32;;;;;;;0.60;0.60;;;9.50;99.90;;;;;;5062263;28;20698;-85
2022/05/26 03:59:59;;;;;;;0.50;0.50;;;9.60;99.90;;;;;;5061883;28;20191;-84
2022/05/26 04:02:25;;;;;;;0.60;0.60;;;9.60;99.90;;;;;;5060345;28;20200;-84
2022/05/26 04:04:51;;;;;;;0.70;0.70;;;9.60;99.90;;;;;;5078908;28;20189;-85
2022/05/26 04:07:17;;;;;;;0.60;0.60;;;9.60;99.90;;;;;;5060605;28;20623;-85
2022/05/26 04:09:43;;;;;;;0.60;0.60;;;9.50;99.90;;;;;;5078383;28;20243;-88
2022/05/26 04:12:10;;;;;;;0.60;0.60;;;9.50;99.90;;;;;;5061621;28;20429;-86
2022/05/26 04:14:37;;;;;;;0.60;0.60;;;9.50;99.90;;;;;;5079304;28;20201;-88
2022/05/26 04:17:03;;;;;;;0.63;0.63;;;9.60;99.90;;;;;;5062036;28;20205;-87
2022/05/26 04:19:29;;;;;;;0.60;0.60;;;9.50;99.90;;;;;;5059576;28;20280;-85
2022/05/26 04:24:39;;;;;;;0.50;0.50;;;9.50;99.90;;;;;;5078935;28;20581;-86
2022/05/26 04:27:05;;;;;;;0.60;0.60;;;9.50;99.90;;;;;;5060710;28;20280;-86
2022/05/26 04:29:32;;;;;;;0.93;0.93;;;9.50;99.90;;;;;;5060084;28;20197;-87
2022/05/26 04:31:58;;;;;;;0.95;0.95;;;9.50;99.90;;;;;;5076070;28;20193;-85
2022/05/26 04:34:24;;;;;;;0.60;0.60;;;9.50;99.90;;;;;;5057192;28;20235;-84
2022/05/26 04:36:50;;;;;;;0.60;0.60;;;9.60;99.90;;;;;;5059992;28;20598;-87
2022/05/26 04:39:17;;;;;;;0.50;0.50;;;9.60;99.90;;;;;;5060192;28;20211;-87
2022/05/26 04:41:43;;;;;;;0.70;0.70;;;9.60;99.90;;;;;;5060666;28;20636;-85
2022/05/26 04:44:10;;;;;;;0.60;0.60;;;9.60;99.90;;;;;;5061500;28;20223;-86
2022/05/26 04:46:36;;;;;;;0.60;0.60;;;9.70;99.90;;;;;;5079820;28;20639;-87
2022/05/26 04:49:06;;;;;;;0.60;0.60;;;9.80;99.90;;;;;;5078186;28;20245;-87
2022/05/26 04:51:36;;;;;;;0.60;0.60;;;9.80;99.90;;;;;;5077642;28;20758;-87
2022/05/26 04:54:04;;;;;;;6.13;1.40;;;9.90;99.90;;;;;;5063025;28;20199;-85
2022/05/26 04:56:30;;;;;;;0.95;0.95;;;10.00;99.90;;;;;;5061960;28;20655;-86
2022/05/26 04:58:58;;;;;;;0.60;0.60;;;10.00;99.90;;;;;;5062382;28;20300;-86
2022/05/26 05:01:24;;;;;;;0.60;0.60;;;10.10;99.90;;;;;;5062279;28;20250;-86
2022/05/26 05:03:49;;;;;;;0.55;0.55;;;10.20;99.90;;;;;;5062703;28;20196;-85
2022/05/26 05:06:16;;;;;;;0.65;0.65;;;10.40;99.90;;;;;;5062528;28;20262;-85
2022/05/26 05:08:43;;;;;;;0.55;0.55;;;10.50;99.90;;;;;;5062599;28;20239;-87
2022/05/26 05:11:10;;;;;;;0.50;0.50;;;10.50;99.90;;;;;;5062221;28;20267;-86
2022/05/26 05:13:37;;;;;;;0.57;0.57;;;10.60;99.90;;;;;;5080055;28;20193;-85
2022/05/26 05:16:30;;;;;;;0.50;0.50;;;10.70;99.90;;;;;;5061410;28;20665;-87
2022/05/26 05:18:56;;;;;;;0.55;0.55;;;10.70;99.90;;;;;;5066660;28;20260;-85
2022/05/26 05:21:46;;;;;;;1.00;0.90;;;10.70;99.90;;;;;;5041609;28;20193;-86
2022/05/26 05:24:34;;;;;;;0.82;0.82;;;10.70;99.90;;;;;;5040143;28;20276;-86
2022/05/26 05:27:06;;;;;;;0.77;0.77;;;10.70;99.90;;;;;;5039020;28;20224;-86
2022/05/26 05:29:35;;;;;;;0.70;0.70;;;10.70;99.90;;;;;;5041875;28;20660;-87
2022/05/26 05:32:08;;;;;;;0.60;0.60;;;10.70;99.90;;;;;;5058272;28;20205;-85
2022/05/26 05:34:43;;;;;;;0.55;0.55;;;10.80;99.90;;;;;;5041629;28;20198;-84
2022/05/26 05:37:10;;;;;;;0.50;0.50;;;10.80;99.90;;;;;;5021437;28;20209;-85
2022/05/26 05:39:36;;;;;;;0.50;0.50;;;10.90;99.90;;;;;;5021674;28;20576;-86
2022/05/26 05:42:03;;;;;;;0.50;0.50;;;10.90;99.90;;;;;;5058320;28;20731;-86
2022/05/26 05:44:31;;;;;;;0.60;0.60;;;11.00;99.90;;;;;;5065331;28;20199;-84
2022/05/26 05:47:01;;;;;;;0.63;0.63;;;10.90;99.90;;;;;;5064608;28;20624;-85
2022/05/26 05:49:30;;;;;;;0.70;0.70;;;10.90;99.90;;;;;;5046447;28;20668;-85
2022/05/26 05:52:03;;;;;;;0.50;0.50;;;10.90;99.90;;;;;;5043576;28;20221;-85
2022/05/26 05:54:31;;;;;;;0.60;0.60;;;10.80;99.90;;;;;;5060761;28;20541;-85
2022/05/26 05:56:57;;;;;;;0.50;0.50;;;10.70;99.90;;;;;;5061163;28;20560;-86
2022/05/26 05:59:26;;;;;;;0.70;0.70;;;10.70;99.90;;;;;;5060589;28;20189;-86
2022/05/26 06:01:51;;;;;;;0.60;0.60;;;10.80;99.90;;;;;;5061277;28;20740;-85
2022/05/26 06:04:17;;;;;;;0.50;0.50;;;10.80;99.90;;;;;;5060330;28;20217;-84
2022/05/26 06:06:44;;;;;;;0.60;0.60;;;10.90;99.90;;;;;;5043559;28;20194;-85
2022/05/26 06:09:16;;;;;;;0.50;0.50;;;10.80;99.90;;;;;;5059497;28;20197;-85
2022/05/26 06:11:42;;;;;;;0.50;0.50;;;10.80;99.90;;;;;;5060379;28;20293;-85
2022/05/26 06:14:08;;;;;;;0.50;0.50;;;10.70;99.90;;;;;;5059721;28;20200;-85
2022/05/26 06:16:37;;;;;;;0.70;0.70;;;10.70;99.90;;;;;;5059200;28;20289;-85
2022/05/26 06:19:03;;;;;;;0.50;0.50;;;10.60;99.90;;;;;;5068419;28;20255;-85
2022/05/26 06:21:29;;;;;;;0.70;0.70;;;10.70;99.90;;;;;;5063302;28;20189;-85
2022/05/26 06:23:56;;;;;;;0.50;0.50;;;10.80;99.90;;;;;;5063506;28;20193;-84
2022/05/26 06:26:28;;;;;;;0.50;0.50;;;10.90;99.90;;;;;;5062749;28;20197;-84
2022/05/26 06:31:39;;;;;;;0.50;0.50;;;11.30;99.90;;;;;;5080213;28;20219;-86
2022/05/26 06:39:34;;;;;;;0.50;0.50;;;11.80;99.90;;;;;;5080374;28;20219;-85
2022/05/26 06:42:05;;;;;;;0.50;0.50;;;11.90;99.90;;;;;;5061557;28;20193;-85
2022/05/26 06:44:34;;;;;;;0.80;0.80;;;11.70;99.90;;;;;;5060635;28;20189;-85
2022/05/26 06:47:01;;;;;;;0.50;0.50;;;11.60;99.90;;;;;;5080185;28;20600;-88
2022/05/26 06:49:27;;;;;;;0.57;0.57;;;11.50;99.90;;;;;;5064059;28;20559;-87
2022/05/26 06:51:53;;;;;;;0.50;0.50;;;11.30;99.90;;;;;;5063740;28;20189;-83
2022/05/26 06:54:19;;;;;;;0.90;0.80;;;11.20;99.90;;;;;;5064826;28;20262;-89
2022/05/26 06:56:44;;;;;;;0.82;0.82;;;11.20;99.90;;;;;;5064451;28;20200;-87
2022/05/26 06:59:10;;;;;;;0.50;0.50;;;11.20;99.90;;;;;;5080985;28;20284;-87
2022/05/26 07:01:36;;;;;;;0.70;0.70;;;11.20;99.90;;;;;;5080254;28;20192;-86
2022/05/26 07:04:04;;;;;;;0.70;0.70;;;11.10;99.90;;;;;;5080463;28;20228;-85
2022/05/26 07:06:32;;;;;;;0.50;0.50;;;11.20;99.90;;;;;;5080049;28;20667;-87
2022/05/26 07:08:58;;;;;;;0.50;0.50;;;11.20;99.90;;;;;;5063543;28;20759;-85
2022/05/26 07:11:24;;;;;;;0.50;0.50;;;11.20;99.90;;;;;;5063700;28;20239;-88
2022/05/26 07:13:50;;;;;;;0.50;0.50;;;11.30;99.90;;;;;;5063703;28;20201;-87
2022/05/26 07:16:16;;;;;;;0.60;0.60;;;11.30;99.90;;;;;;5062574;28;20339;-86
2022/05/26 07:18:45;;;;;;;0.77;0.77;;;11.10;99.90;;;;;;5061770;28;20251;-86
2022/05/26 07:21:12;;;;;;;0.50;0.50;;;11.00;99.90;;;;;;5062354;28;20260;-86
2022/05/26 07:23:38;;;;;;;0.55;0.55;;;10.90;99.90;;;;;;5062789;28;20197;-85
2022/05/26 07:26:09;;;;;;;0.98;0.90;;;10.80;99.90;;;;;;5063493;28;20239;-86
2022/05/26 07:28:36;;;;;;;0.50;0.50;;;10.90;99.90;;;;;;5062107;28;20263;-86
2022/05/26 07:31:02;;;;;;;0.50;0.50;;;10.90;99.90;;;;;;5062558;28;20648;-86
2022/05/26 07:42:15;;;;;;;0.60;0.60;;;11.00;99.90;;;;;;5081247;28;20207;-87
2022/05/26 07:44:45;;;;;;;0.65;0.65;;;11.20;99.90;;;;;;5062774;28;20201;-87
2022/05/26 07:47:12;;;;;;;0.65;0.65;;;11.40;99.90;;;;;;5062912;28;20197;-89
2022/05/26 07:49:42;;;;;;;1.75;1.65;;;11.50;99.90;;;;;;5062710;28;20608;-86
2022/05/26 07:52:09;;;;;;;4.00;1.58;;;11.60;99.90;;;;;;5061263;28;20225;-82
2022/05/26 07:55:01;;;;;;;0.93;0.93;;;11.90;99.90;;;;;;5060920;28;20540;-86
2022/05/26 07:57:28;;;;;;;0.57;0.57;;;11.80;99.90;;;;;;5060668;28;20737;-86
2022/05/26 07:59:56;;;;;;;0.50;0.50;;;12.00;99.90;;;;;;5062325;28;20205;-88
2022/05/26 08:02:21;;;;;;;0.95;0.90;;;12.00;99.90;;;;;;5061240;28;20197;-87
2022/05/26 08:04:47;;;;;;;0.82;0.82;;;12.20;99.90;;;;;;5060677;28;20219;-87
2022/05/26 08:07:14;;;;;;;0.50;0.50;;;12.20;99.90;;;;;;5061429;28;20201;-87
2022/05/26 08:09:40;;;;;;;0.50;0.50;;;12.00;99.90;;;;;;5079359;28;20196;-86
2022/05/26 08:12:08;;;;;;;0.40;0.40;;;11.80;99.90;;;;;;5078399;28;20627;-86
2022/05/26 08:14:35;;;;;;;0.60;0.60;;;11.80;99.90;;;;;;5060467;28;20291;-87
2022/05/26 08:17:01;;;;;;;0.50;0.50;;;11.70;99.90;;;;;;5061488;28;20193;-86
2022/05/26 08:19:27;;;;;;;0.47;0.47;;;11.60;99.90;;;;;;5060239;28;20236;-86
2022/05/26 08:21:54;;;;;;;0.47;0.47;;;11.50;99.90;;;;;;5061120;28;20250;-87
2022/05/26 08:24:20;;;;;;;0.40;0.40;;;11.50;99.90;;;;;;5061049;28;20196;-88
2022/05/26 08:26:48;;;;;;;0.50;0.50;;;11.50;99.90;;;;;;5061900;28;20193;-85
2022/05/26 08:29:14;;;;;;;0.50;0.50;;;11.40;99.90;;;;;;5059896;28;20283;-86
2022/05/26 08:31:43;;;;;;;0.60;0.60;;;11.30;99.90;;;;;;5058540;28;20258;-87
2022/05/26 08:34:09;;;;;;;0.57;0.57;;;11.30;99.90;;;;;;5069227;28;20205;-87
2022/05/26 08:36:35;;;;;;;4.82;2.92;;;11.50;99.90;;;;;;5075120;28;20238;-86
2022/05/26 08:39:02;;;;;;;1.55;1.02;;;11.60;99.90;;;;;;5059006;28;20266;-85
2022/05/26 08:41:33;;;;;;;0.50;0.50;;;11.60;99.90;;;;;;5058986;28;20660;-86
2022/05/26 08:44:14;;;;;;;0.57;0.57;;;11.50;99.90;;;;;;5061033;28;20309;-88
2022/05/26 08:47:11;;;;;;;0.60;0.60;;;11.30;99.90;;;;;;5060583;28;20193;-94
2022/05/26 08:50:07;;;;;;;0.50;0.50;;;11.30;99.90;;;;;;5058933;28;20227;-86
2022/05/26 08:52:57;;;;;;;0.50;0.50;;;11.30;99.90;;;;;;5057642;28;20201;-85
2022/05/26 08:58:50;;;;;;;0.50;0.50;;;11.30;99.90;;;;;;5082024;28;20273;-90
2022/05/26 09:01:20;;;;;;;0.60;0.60;;;11.20;99.90;;;;;;5063015;28;20687;-86
2022/05/26 09:04:06;;;;;;;0.50;0.50;;;11.10;99.90;;;;;;5064100;28;20210;-93
2022/05/26 09:12:56;;;;;;;0.60;0.60;;;11.10;99.90;;;;;;5061175;28;20204;-93
2022/05/26 09:15:22;;;;;;;0.50;0.50;;;11.10;99.90;;;;;;5046302;28;20574;-86
2022/05/26 09:17:48;;;;;;;2.15;1.23;;;11.00;99.90;;;;;;5043358;28;20221;-83
2022/05/26 09:20:41;;;;;;;1.02;0.80;;;11.20;99.90;;;;;;5058990;28;20221;-83
2022/05/26 09:23:13;;;;;;;0.77;0.77;;;11.50;99.90;;;;;;5057828;28;20198;-83
2022/05/26 09:25:49;;;;;;;0.52;0.52;;;12.00;99.90;;;;;;5057232;28;20265;-82
2022/05/26 09:28:40;;;;;;;0.40;0.40;;;12.60;99.90;;;;;;5057553;28;20688;-85
2022/05/26 09:31:25;;;;;;;0.52;0.52;;;13.30;99.90;;;;;;5058437;28;20205;-85
2022/05/26 09:34:20;;;;;;;0.55;0.55;;;14.00;99.90;;;;;;5071213;28;20586;-83
2022/05/26 09:37:03;;;;;;;0.40;0.40;;;14.30;99.90;;;;;;5065817;28;20212;-88
2022/05/26 09:39:42;;;;;;;0.40;0.40;;;14.20;99.90;;;;;;5068011;28;20212;-88
2022/05/26 09:42:17;;;;;;;1.25;0.93;;;14.90;99.90;;;;;;5069051;28;20231;-88
2022/05/26 09:45:13;;;;;;;0.60;0.60;;;15.10;99.90;;;;;;5072113;28;20196;-90
2022/05/26 09:47:54;;;;;;;0.30;0.30;;;15.20;99.90;;;;;;5086278;28;20257;-86
2022/05/26 09:50:39;;;;;;;0.60;0.60;;;15.50;99.90;;;;;;5071305;28;20209;-85
2022/05/26 09:53:07;;;;;;;0.40;0.40;;;16.10;99.90;;;;;;5087342;28;20207;-84
2022/05/26 09:55:44;;;;;;;0.40;0.40;;;16.10;99.90;;;;;;5067157;28;20204;-88
2022/05/26 09:58:28;;;;;;;0.50;0.50;;;16.00;99.90;;;;;;5071103;28;20210;-90
2022/05/26 10:01:00;;;;;;;0.10;0.10;;;15.60;99.90;;;;;;5071653;28;20193;-89
2022/05/26 10:03:49;;;;;;;0.10;0.10;;;15.10;99.90;;;;;;5065183;28;20243;-86
2022/05/26 10:06:37;;;;;;;0.10;0.10;;;14.60;99.90;;;;;;5065425;28;20197;-89
2022/05/26 10:09:15;;;;;;;0.10;0.10;;;14.50;99.90;;;;;;5061409;28;20684;-89
2022/05/26 10:12:16;;;;;;;0.17;0.17;;;14.70;99.90;;;;;;5047083;28;20605;-89
2022/05/26 10:15:23;;;;;;;0.20;0.20;;;14.80;99.90;;;;;;5040411;28;20210;-89
2022/05/26 10:18:10;;;;;;;0.10;0.10;;;14.70;99.90;;;;;;4984854;28;20227;-90
2022/05/26 10:21:12;;;;;;;0.20;0.20;;;14.80;99.90;;;;;;4983459;28;20200;-85
2022/05/26 10:24:16;;;;;;;0.20;0.20;;;15.10;99.90;;;;;;4967030;28;20557;-82
2022/05/26 10:26:52;;;;;;;0.43;0.40;;;15.50;99.90;;;;;;4969117;28;20243;-81
2022/05/26 10:29:28;;;;;;;0.10;0.10;;;15.70;99.90;;;;;;4969665;28;20241;-83
2022/05/26 10:32:32;;;;;;;0.20;0.20;;;16.00;99.90;;;;;;4985579;28;20378;-85
2022/05/26 10:35:29;;;;;;;0.30;0.30;;;16.40;99.90;;;;;;4953699;28;20714;-83
2022/05/26 10:38:14;;;;;;;0.13;0.13;;;16.50;99.90;;;;;;4965467;28;20226;-84
2022/05/26 10:41:06;;;;;;;0.38;0.38;;;17.10;99.90;;;;;;4966435;28;20202;-85
2022/05/26 10:43:53;;;;;;;1.13;0.60;;;16.90;99.90;;;;;;4975161;28;20243;-86
2022/05/26 10:46:23;;;;;;;0.30;0.30;;;16.50;99.90;;;;;;4966035;28;20196;-85
2022/05/26 10:48:51;;;;;;;0.30;0.30;;;16.50;99.90;;;;;;5001467;28;20210;-85
2022/05/26 10:51:24;;;;;;;0.35;0.35;;;17.10;99.90;;;;;;5042912;28;20821;-85
2022/05/26 10:54:15;;;;;;;0.35;0.35;;;17.50;99.90;;;;;;5025137;28;20202;-84
2022/05/26 10:56:41;;;;;;;0.35;0.35;;;18.00;99.90;;;;;;5025605;28;20202;-85
2022/05/26 10:59:22;;;;;;;0.30;0.30;;;17.80;99.90;;;;;;5044647;28;20249;-85
2022/05/26 11:01:50;;;;;;;0.30;0.30;;;18.00;99.90;;;;;;5064704;28;20595;-85
2022/05/26 11:04:22;;;;;;;0.40;0.40;;;17.80;99.90;;;;;;5068962;28;20680;-86
2022/05/26 11:06:51;;;;;;;0.30;0.30;;;17.90;99.90;;;;;;5046219;28;20256;-86
2022/05/26 11:09:35;;;;;;;1.55;0.82;;;18.00;99.90;;;;;;5045566;28;20558;-87
2022/05/26 11:12:07;;;;;;;0.40;0.40;;;18.90;99.90;;;;;;5063265;28;20200;-87
2022/05/26 11:17:52;;;;;;;0.40;0.40;;;20.00;99.90;;;;;;5065427;28;20232;-85
2022/05/26 11:20:22;;;;;;;0.30;0.30;;;20.00;99.90;;;;;;5065213;28;20541;-86
2022/05/26 11:22:51;;;;;;;0.20;0.20;;;20.00;99.90;;;;;;5066753;28;20243;-87
2022/05/26 11:25:32;;;;;;;0.50;0.47;;;20.50;99.90;;;;;;5065906;28;20215;-88
2022/05/26 11:28:22;;;;;;;0.20;0.20;;;20.30;99.90;;;;;;5065050;28;20220;-87
2022/05/26 11:36:49;;;;;;;0.20;0.20;;;21.40;99.90;;;;;;5082129;28;20231;-86
2022/05/26 11:39:31;;;;;;;0.35;0.30;;;20.90;99.90;;;;;;5064179;28;20220;-87
2022/05/26 11:42:31;;;;;;;0.22;0.22;;;20.10;99.90;;;;;;5063695;28;20223;-84
2022/05/26 11:45:24;;;;;;;0.30;0.30;;;19.60;99.90;;;;;;5044315;28;20216;-90
2022/05/26 11:48:02;;;;;;;0.20;0.20;;;19.30;99.90;;;;;;5064268;28;20201;-86
2022/05/26 11:50:30;;;;;;;0.60;0.60;;;18.90;99.90;;;;;;5080720;28;20192;-85
2022/05/26 11:52:56;;;;;;;0.30;0.30;;;18.40;99.90;;;;;;5063497;28;20333;-82
2022/05/26 11:55:48;;;;;;;0.47;0.45;;;18.00;99.90;;;;;;5063173;28;20264;-87
2022/05/26 11:58:42;;;;;;;0.20;0.20;;;18.20;99.90;;;;;;5084027;28;20967;-87
2022/05/26 12:01:13;;;;;;;0.20;0.20;;;18.30;99.90;;;;;;5063165;28;20234;-82
2022/05/26 12:03:54;;;;;;;6.95;1.20;;;18.10;99.90;;;;;;5062769;28;20205;-86
2022/05/26 12:06:39;;;;;;;0.20;0.20;;;18.10;99.90;;;;;;5063507;28;20196;-84
2022/05/26 12:09:12;;;;;;;1.17;0.50;;;17.80;99.90;;;;;;5064024;28;20200;-83
2022/05/26 12:11:53;;;;;;;0.30;0.30;;;17.50;99.90;;;;;;5065135;28;20671;-80
2022/05/26 12:14:44;;;;;;;0.57;0.50;;;17.50;99.90;;;;;;5069260;28;20200;-84
2022/05/26 12:17:32;;;;;;;0.20;0.20;;;17.70;99.90;;;;;;5079962;28;20205;-85
2022/05/26 12:20:24;;;;;;;1.05;0.82;;;17.40;99.90;;;;;;5067189;28;20197;-85
2022/05/26 12:22:49;;;;;;;5.78;0.60;;;17.70;99.90;;;;;;5051863;28;20194;-85
2022/05/26 12:25:35;;;;;;;0.20;0.20;;;17.90;99.90;;;;;;5068471;28;20212;-84
2022/05/26 12:28:09;;;;;;;0.20;0.20;;;18.20;99.90;;;;;;5065533;28;20228;-84
2022/05/26 12:30:44;;;;;;;0.20;0.20;;;18.30;99.90;;;;;;5060288;28;20656;-83
2022/05/26 12:33:23;;;;;;;2.47;1.13;;;17.10;99.90;;;;;;5062664;28;20197;-82
2022/05/26 12:36:07;;;;;;;0.50;0.50;;;17.00;99.90;;;;;;5061614;28;20205;-83
2022/05/26 12:39:14;;;;;;;0.20;0.20;;;17.10;99.90;;;;;;5058634;28;20696;-83
2022/05/26 12:41:59;;;;;;;0.30;0.30;;;17.70;99.90;;;;;;5057998;28;20660;-82
2022/05/26 12:45:03;;;;;;;0.30;0.30;;;17.80;99.90;;;;;;5059195;28;20217;-82
2022/05/26 12:47:38;;;;;;;0.30;0.30;;;17.70;99.90;;;;;;5058788;28;20668;-83
2022/05/26 12:50:18;;;;;;;1.05;0.47;;;18.10;99.90;;;;;;5058691;28;20247;-84
2022/05/26 12:52:49;;;;;;;0.30;0.30;;;18.20;99.90;;;;;;5059856;28;20221;-83
2022/05/26 12:55:24;;;;;;;0.40;0.40;;;18.20;99.90;;;;;;5043713;28;20624;-83
2022/05/26 12:58:11;;;;;;;0.30;0.30;;;17.80;99.90;;;;;;5078301;28;20215;-84
2022/05/26 13:00:45;;;;;;;0.75;0.75;;;17.30;99.90;;;;;;5061986;28;20630;-85
2022/05/26 13:03:25;;;;;;;0.45;0.45;;;17.30;99.90;;;;;;5060339;28;20250;-83
2022/05/26 13:06:13;;;;;;;2.40;1.02;;;16.90;99.90;;;;;;5059022;28;20195;-85
2022/05/26 13:08:45;;;;;;;0.40;0.40;;;16.70;99.90;;;;;;5059701;28;20663;-84
2022/05/26 13:11:18;;;;;;;0.47;0.47;;;16.70;99.90;;;;;;5077689;28;20601;-83
2022/05/26 13:13:53;;;;;;;0.80;0.63;;;16.50;99.90;;;;;;5059937;28;20230;-84
2022/05/26 13:16:34;;;;;;;0.40;0.40;;;16.60;99.90;;;;;;5060371;28;20682;-84
2022/05/26 13:19:18;;;;;;;0.30;0.30;;;16.10;99.90;;;;;;5061065;28;20216;-85
2022/05/26 13:21:59;;;;;;;0.30;0.30;;;16.60;99.90;;;;;;5066171;28;20554;-85
2022/05/26 13:24:31;;;;;;;1.27;0.90;;;16.90;99.90;;;;;;5061641;28;20224;-85
2022/05/26 13:27:18;;;;;;;0.50;0.50;;;17.40;99.90;;;;;;5065760;28;20193;-86
2022/05/26 13:29:47;;;;;;;0.25;0.25;;;17.50;99.90;;;;;;5065053;28;20189;-84
2022/05/26 13:35:20;;;;;;;0.30;0.30;;;17.00;99.90;;;;;;5065305;28;20200;-86
2022/05/26 13:37:46;;;;;;;0.30;0.30;;;16.50;99.90;;;;;;5060345;28;20223;-86
2022/05/26 13:40:26;;;;;;;0.50;0.50;;;16.30;99.90;;;;;;5066559;28;20197;-86
2022/05/26 13:42:53;;;;;;;0.30;0.30;;;16.50;99.90;;;;;;5064805;28;20222;-84
2022/05/26 13:45:34;;;;;;;0.30;0.30;;;16.60;99.90;;;;;;5081681;28;20220;-85
2022/05/26 13:48:25;;;;;;;1.50;0.93;;;16.90;99.90;;;;;;5063814;28;20226;-84
2022/05/26 13:50:53;;;;;;;0.30;0.30;;;17.40;99.90;;;;;;5079581;28;20254;-85
2022/05/26 13:53:20;;;;;;;0.30;0.30;;;17.70;99.90;;;;;;5066871;28;20227;-84
2022/05/26 13:55:48;;;;;;;0.30;0.30;;;17.80;99.90;;;;;;5063373;28;20231;-86
2022/05/26 13:58:20;;;;;;;1.85;1.20;;;17.70;99.90;;;;;;5063978;28;20295;-85
2022/05/26 14:00:56;;;;;;;0.60;0.60;;;17.70;99.90;;;;;;5081336;28;20197;-84
2022/05/26 14:03:25;;;;;;;0.30;0.30;;;17.60;99.90;;;;;;5065352;28;20188;-81
2022/05/26 14:06:02;;;;;;;4.60;1.40;;;17.70;99.90;;;;;;5065757;28;20253;-84
2022/05/26 14:08:28;;;;;;;0.73;0.73;;;17.60;99.90;;;;;;5082031;28;20205;-86
2022/05/26 14:10:56;;;;;;;1.30;1.20;;;18.00;99.90;;;;;;5069451;28;20209;-87
2022/05/26 14:13:27;;;;;;;0.77;0.68;;;18.10;99.90;;;;;;5086317;28;20243;-82
2022/05/26 14:16:05;;;;;;;3.50;1.80;;;17.70;99.90;;;;;;5066259;28;20197;-86
2022/05/26 14:18:40;;;;;;;5.15;1.60;;;17.30;99.90;;;;;;5065831;28;20225;-86